createdAt,value
2022-10-19T00:00:54.535Z,52.42
2022-10-19T00:07:27.774Z,52.53
2022-10-19T00:13:52.089Z,52.62
2022-10-19T00:20:27.071Z,52.74
2022-10-19T00:26:51.403Z,52.80
2022-10-19T00:33:19.458Z,52.90
2022-10-19T00:39:52.529Z,52.89
2022-10-19T00:46:26.810Z,52.89
2022-10-19T00:53:00.461Z,53.07
2022-10-19T00:59:26.716Z,52.93
2022-10-19T01:12:38.038Z,52.95
2022-10-19T01:25:51.883Z,53.10
2022-10-19T01:32:29.286Z,53.26
2022-10-19T01:38:53.473Z,53.40
2022-10-19T01:52:18.844Z,53.52
2022-10-19T01:58:48.986Z,53.33
2022-10-19T02:05:13.261Z,53.55
2022-10-19T02:11:41.311Z,53.57
2022-10-19T02:18:10.068Z,53.39
2022-10-19T02:24:37.417Z,53.66
2022-10-19T02:31:02.848Z,53.57
2022-10-19T02:37:28.256Z,53.62
2022-10-19T02:43:52.705Z,53.76
2022-10-19T02:50:17.048Z,53.69
2022-10-19T02:56:49.431Z,53.78
2022-10-19T03:03:13.725Z,53.72
2022-10-19T03:09:38.009Z,53.70
2022-10-19T03:16:02.650Z,53.73
2022-10-19T03:22:26.875Z,53.82
2022-10-19T03:28:51.219Z,53.81
2022-10-19T03:35:15.446Z,53.72
2022-10-19T03:41:44.139Z,53.83
2022-10-19T03:47:49.504Z,53.74
2022-10-19T03:54:15.850Z,53.71
2022-10-19T04:00:40.181Z,53.79
2022-10-19T04:07:10.398Z,53.71
2022-10-19T04:13:34.582Z,53.86
2022-10-19T04:19:58.776Z,53.77
2022-10-19T04:26:23.009Z,53.95
2022-10-19T04:32:51.102Z,53.80
2022-10-19T04:39:15.418Z,53.68
2022-10-19T04:45:39.629Z,53.60
2022-10-19T04:52:04.001Z,53.15
2022-10-19T04:58:28.270Z,52.90
2022-10-19T05:04:54.167Z,52.50
2022-10-19T05:11:18.411Z,52.09
2022-10-19T05:17:42.701Z,51.61
2022-10-19T05:24:06.930Z,51.16
2022-10-19T05:30:32.374Z,50.98
2022-10-19T05:36:56.591Z,50.84
2022-10-19T05:43:20.861Z,50.43
2022-10-19T05:49:45.188Z,50.44
2022-10-19T05:56:10.687Z,50.45
2022-10-19T06:02:42.752Z,50.57
2022-10-19T06:09:06.963Z,50.43
2022-10-19T06:15:31.269Z,50.45
2022-10-19T06:22:08.360Z,50.35
2022-10-19T06:28:38.658Z,50.50
2022-10-19T06:35:04.077Z,50.78
2022-10-19T06:41:28.378Z,50.86
2022-10-19T06:47:52.705Z,50.72
2022-10-19T06:54:18.266Z,50.80
2022-10-19T07:00:42.840Z,50.71
2022-10-19T07:07:07.137Z,50.99
2022-10-19T07:13:32.087Z,51.20
2022-10-19T07:19:58.311Z,51.36
2022-10-19T07:26:22.528Z,51.69
2022-10-19T07:32:47.180Z,51.79
2022-10-19T07:39:11.801Z,51.96
2022-10-19T07:45:36.081Z,51.81
2022-10-19T07:52:04.184Z,51.84
2022-10-19T07:58:30.434Z,51.55
2022-10-19T08:05:02.110Z,51.11
2022-10-19T08:25:17.952Z,51.08
2022-10-19T08:31:44.310Z,51.04
2022-10-19T08:38:08.524Z,50.88
2022-10-19T08:44:45.730Z,50.87
2022-10-19T08:51:25.603Z,51.09
2022-10-19T08:57:54.331Z,51.16
2022-10-19T09:04:47.855Z,51.13
2022-10-19T09:11:16.528Z,51.24
2022-10-19T09:17:40.791Z,51.20
2022-10-19T09:24:20.282Z,51.25
2022-10-19T09:30:48.211Z,51.23
2022-10-19T09:44:02.294Z,51.23
2022-10-19T09:50:51.595Z,51.27
2022-10-19T09:57:18.558Z,51.29
2022-10-19T10:03:48.044Z,51.28
2022-10-19T10:10:19.331Z,51.22
2022-10-19T10:16:53.348Z,50.99
2022-10-19T10:23:41.402Z,50.72
2022-10-19T10:30:08.363Z,50.85
2022-10-19T10:36:32.681Z,50.92
2022-10-19T10:43:05.606Z,50.81
2022-10-19T10:49:32.369Z,50.85
2022-10-19T10:56:11.249Z,51.11
2022-10-19T11:02:34.825Z,51.04
2022-10-19T11:09:33.154Z,51.14
2022-10-19T11:16:00.208Z,51.02
2022-10-19T11:22:26.357Z,51.27
2022-10-19T11:29:08.631Z,51.44
2022-10-19T11:35:39.972Z,52.20
2022-10-19T11:42:10.939Z,52.60
2022-10-19T11:48:35.295Z,52.67
2022-10-19T11:55:05.737Z,52.56
2022-10-19T12:01:29.998Z,52.10
2022-10-19T12:07:57.093Z,51.86
2022-10-19T12:14:29.971Z,51.43
2022-10-19T12:20:56.865Z,50.94
2022-10-19T12:27:21.473Z,50.72
2022-10-19T12:33:47.137Z,50.90
2022-10-19T12:40:27.313Z,51.06
2022-10-19T12:47:01.070Z,51.31
2022-10-19T12:53:44.000Z,51.36
2022-10-19T13:00:10.961Z,51.54
2022-10-19T13:06:42.033Z,51.44
2022-10-19T13:13:21.193Z,51.51
2022-10-19T13:20:00.682Z,51.32
2022-10-19T13:26:24.977Z,50.55
2022-10-19T13:32:48.279Z,49.82
2022-10-19T13:39:18.814Z,49.25
2022-10-19T13:45:44.769Z,48.79
2022-10-19T13:52:19.643Z,48.31
2022-10-19T13:59:00.033Z,47.59
2022-10-19T14:05:25.595Z,47.15
2022-10-19T14:11:52.830Z,46.94
2022-10-19T14:18:19.492Z,46.40
2022-10-19T14:24:44.146Z,46.53
2022-10-19T14:31:22.361Z,46.65
2022-10-19T14:37:47.163Z,46.79
2022-10-19T14:44:23.576Z,46.86
2022-10-19T14:50:46.894Z,46.92
2022-10-19T14:57:13.620Z,47.01
2022-10-19T15:03:42.859Z,47.19
2022-10-19T15:10:13.723Z,47.18
2022-10-19T15:16:38.024Z,47.20
2022-10-19T15:23:14.321Z,47.24
2022-10-19T15:29:47.664Z,47.47
2022-10-19T15:36:18.342Z,47.69
2022-10-19T15:43:02.198Z,47.74
2022-10-19T15:49:26.475Z,47.70
2022-10-19T15:55:53.671Z,48.12
2022-10-19T16:02:18.064Z,48.41
2022-10-19T16:08:42.308Z,48.29
2022-10-19T16:15:06.657Z,48.29
2022-10-19T16:21:30.921Z,48.26
2022-10-19T16:27:47.610Z,48.58
2022-10-19T16:34:11.939Z,48.82
2022-10-19T16:40:28.877Z,48.91
2022-10-19T16:46:53.195Z,48.91
2022-10-19T16:53:17.398Z,49.16
2022-10-19T16:59:41.781Z,49.13
2022-10-19T17:06:06.188Z,49.14
2022-10-19T17:12:33.611Z,49.22
2022-10-19T17:18:58.104Z,49.22
2022-10-19T17:25:22.378Z,49.34
2022-10-19T17:31:46.639Z,49.48
2022-10-19T17:38:09.796Z,49.57
2022-10-19T17:44:34.173Z,49.37
2022-10-19T17:50:58.460Z,49.46
2022-10-19T17:57:22.839Z,49.65
2022-10-19T18:03:47.052Z,49.73
2022-10-19T18:10:11.256Z,49.96
2022-10-19T18:16:41.669Z,49.96
2022-10-19T18:23:06.270Z,49.94
2022-10-19T18:29:33.277Z,50.32
2022-10-19T18:35:57.613Z,50.28
2022-10-19T18:42:21.830Z,50.20
2022-10-19T18:48:29.124Z,50.14
2022-10-19T18:54:53.488Z,50.19
2022-10-19T19:01:17.831Z,50.19
2022-10-19T19:07:42.177Z,50.09
2022-10-19T19:14:06.416Z,50.23
2022-10-19T19:20:30.712Z,50.22
2022-10-19T19:26:54.966Z,50.01
2022-10-19T19:33:19.242Z,49.92
2022-10-19T19:39:43.527Z,49.77
2022-10-19T19:46:09.270Z,49.69
2022-10-19T19:52:38.077Z,49.61
2022-10-19T19:59:04.594Z,49.46
2022-10-19T20:05:28.866Z,49.53
2022-10-19T20:11:53.163Z,49.73
2022-10-19T20:18:17.346Z,49.47
2022-10-19T20:24:41.621Z,49.20
2022-10-19T20:31:06.142Z,48.86
2022-10-19T20:37:30.427Z,48.54
2022-10-19T20:43:54.870Z,48.54
2022-10-19T20:50:21.784Z,48.53
2022-10-19T20:56:46.289Z,48.30
2022-10-19T21:03:18.940Z,48.42
2022-10-19T21:09:43.255Z,48.31
2022-10-19T21:16:00.426Z,48.28
2022-10-19T21:22:33.320Z,48.12
2022-10-19T21:29:00.172Z,48.18
2022-10-19T21:35:24.682Z,48.14
2022-10-19T21:41:48.987Z,48.05
2022-10-19T21:48:13.190Z,47.99
2022-10-19T21:54:37.666Z,48.03
2022-10-19T22:01:02.016Z,48.21
2022-10-19T22:07:26.229Z,47.99
2022-10-19T22:13:50.778Z,48.27
2022-10-19T22:20:15.075Z,47.96
2022-10-19T22:26:39.285Z,48.23
2022-10-19T22:33:03.560Z,48.02
2022-10-19T22:39:28.037Z,48.07
2022-10-19T22:45:45.159Z,48.32
2022-10-19T22:52:09.396Z,48.19
2022-10-19T22:58:33.652Z,48.48
2022-10-19T23:04:57.837Z,48.36
2022-10-19T23:11:22.099Z,48.41
2022-10-19T23:17:46.478Z,48.42
2022-10-19T23:24:10.833Z,48.43
2022-10-19T23:30:35.161Z,48.46
2022-10-19T23:37:02.224Z,48.53
2022-10-19T23:43:26.519Z,48.39
2022-10-19T23:49:50.806Z,48.54
2022-10-19T23:56:15.264Z,48.54
